sensor_id;sensor_type;location;lat;lon;timestamp;pressure;altitude;pressure_sealevel;temperature;humidity
15382;BME280;7789;51.364;12.358;2022-11-20T00:02:47;100056.41;;;-0.86;90.42
15382;BME280;7789;51.364;12.358;2022-11-20T00:08:15;100052.22;;;-0.89;91.30
15382;BME280;7789;51.364;12.358;2022-11-20T00:13:57;100048.16;;;-0.94;90.26
15382;BME280;7789;51.364;12.358;2022-11-20T00:20:01;100038.13;;;-0.99;90.85
15382;BME280;7789;51.364;12.358;2022-11-20T00:25:35;100036.50;;;-1.01;90.43
15382;BME280;7789;51.364;12.358;2022-11-20T00:31:16;100042.53;;;-1.02;91.46
15382;BME280;7789;51.364;12.358;2022-11-20T00:36:40;100037.66;;;-1.08;91.87
15382;BME280;7789;51.364;12.358;2022-11-20T00:42:21;100031.81;;;-1.12;91.43
15382;BME280;7789;51.364;12.358;2022-11-20T00:54:20;100036.31;;;-1.17;91.65
15382;BME280;7789;51.364;12.358;2022-11-20T00:59:57;100032.16;;;-1.21;91.09
15382;BME280;7789;51.364;12.358;2022-11-20T01:05:22;100029.59;;;-1.21;91.61
15382;BME280;7789;51.364;12.358;2022-11-20T01:11:07;100027.16;;;-1.24;91.96
15382;BME280;7789;51.364;12.358;2022-11-20T01:16:41;100022.16;;;-1.27;91.63
15382;BME280;7789;51.364;12.358;2022-11-20T01:22:15;100024.78;;;-1.28;92.49
15382;BME280;7789;51.364;12.358;2022-11-20T01:27:44;100027.44;;;-1.30;92.75
15382;BME280;7789;51.364;12.358;2022-11-20T01:33:33;100027.59;;;-1.34;92.98
15382;BME280;7789;51.364;12.358;2022-11-20T01:39:20;100027.69;;;-1.36;92.97
15382;BME280;7789;51.364;12.358;2022-11-20T01:51:08;100026.22;;;-1.43;92.71
15382;BME280;7789;51.364;12.358;2022-11-20T01:57:04;100011.88;;;-1.47;93.19
15382;BME280;7789;51.364;12.358;2022-11-20T02:02:32;100014.50;;;-1.48;92.32
15382;BME280;7789;51.364;12.358;2022-11-20T02:08:01;100006.13;;;-1.52;92.79
15382;BME280;7789;51.364;12.358;2022-11-20T02:13:31;100009.56;;;-1.53;92.77
15382;BME280;7789;51.364;12.358;2022-11-20T02:19:11;100003.72;;;-1.56;92.60
15382;BME280;7789;51.364;12.358;2022-11-20T02:25:03;99990.13;;;-1.58;93.38
15382;BME280;7789;51.364;12.358;2022-11-20T02:30:28;99990.25;;;-1.61;93.15
15382;BME280;7789;51.364;12.358;2022-11-20T02:35:55;99992.75;;;-1.60;93.42
15382;BME280;7789;51.364;12.358;2022-11-20T02:41:31;99987.59;;;-1.58;93.40
15382;BME280;7789;51.364;12.358;2022-11-20T02:46:57;99983.41;;;-1.61;93.46
15382;BME280;7789;51.364;12.358;2022-11-20T02:52:40;99988.56;;;-1.62;93.59
15382;BME280;7789;51.364;12.358;2022-11-20T02:58:09;99984.41;;;-1.65;94.43
15382;BME280;7789;51.364;12.358;2022-11-20T03:03:36;99986.97;;;-1.65;94.20
15382;BME280;7789;51.364;12.358;2022-11-20T03:09:08;99983.78;;;-1.70;94.85
15382;BME280;7789;51.364;12.358;2022-11-20T03:14:49;99974.47;;;-1.72;94.99
15382;BME280;7789;51.364;12.358;2022-11-20T03:20:23;99977.03;;;-1.72;94.94
15382;BME280;7789;51.364;12.358;2022-11-20T03:25:49;99975.38;;;-1.73;95.66
15382;BME280;7789;51.364;12.358;2022-11-20T03:31:21;99961.66;;;-1.72;95.96
15382;BME280;7789;51.364;12.358;2022-11-20T03:36:47;99962.56;;;-1.73;96.26
15382;BME280;7789;51.364;12.358;2022-11-20T03:42:14;99953.22;;;-1.74;95.99
15382;BME280;7789;51.364;12.358;2022-11-20T03:47:57;99940.59;;;-1.79;95.90
15382;BME280;7789;51.364;12.358;2022-11-20T03:53:25;99946.66;;;-1.81;96.20
15382;BME280;7789;51.364;12.358;2022-11-20T03:58:52;99944.22;;;-1.84;96.05
15382;BME280;7789;51.364;12.358;2022-11-20T04:04:20;99954.44;;;-1.84;96.18
15382;BME280;7789;51.364;12.358;2022-11-20T04:09:44;99957.25;;;-1.90;95.69
15382;BME280;7789;51.364;12.358;2022-11-20T04:15:17;99953.94;;;-1.92;96.56
15382;BME280;7789;51.364;12.358;2022-11-20T04:20:56;99963.31;;;-1.92;96.17
15382;BME280;7789;51.364;12.358;2022-11-20T04:26:31;99959.97;;;-1.94;96.03
15382;BME280;7789;51.364;12.358;2022-11-20T04:31:59;99947.47;;;-2.02;95.83
15382;BME280;7789;51.364;12.358;2022-11-20T04:37:28;99944.91;;;-2.02;96.21
15382;BME280;7789;51.364;12.358;2022-11-20T04:43:01;99938.09;;;-2.01;96.63
15382;BME280;7789;51.364;12.358;2022-11-20T04:48:32;99936.34;;;-2.01;96.02
15382;BME280;7789;51.364;12.358;2022-11-20T04:54:07;99930.44;;;-2.03;96.65
15382;BME280;7789;51.364;12.358;2022-11-20T04:59:40;99936.50;;;-2.05;96.26
15382;BME280;7789;51.364;12.358;2022-11-20T05:05:12;99934.03;;;-2.07;96.14
15382;BME280;7789;51.364;12.358;2022-11-20T05:11:09;99938.28;;;-2.07;96.45
15382;BME280;7789;51.364;12.358;2022-11-20T05:16:41;99930.75;;;-2.10;96.09
15382;BME280;7789;51.364;12.358;2022-11-20T05:22:07;99930.09;;;-2.15;96.29
15382;BME280;7789;51.364;12.358;2022-11-20T05:27:42;99944.69;;;-2.17;96.36
15382;BME280;7789;51.364;12.358;2022-11-20T05:33:12;99937.97;;;-2.21;96.05
15382;BME280;7789;51.364;12.358;2022-11-20T05:38:50;99929.59;;;-2.25;95.71
15382;BME280;7789;51.364;12.358;2022-11-20T05:44:22;99916.03;;;-2.27;96.09
15382;BME280;7789;51.364;12.358;2022-11-20T05:49:53;99907.63;;;-2.30;96.03
15382;BME280;7789;51.364;12.358;2022-11-20T05:55:17;99911.84;;;-2.29;95.77
15382;BME280;7789;51.364;12.358;2022-11-20T06:00:43;99908.53;;;-2.31;96.23
15382;BME280;7789;51.364;12.358;2022-11-20T06:06:11;99911.00;;;-2.30;95.55
15382;BME280;7789;51.364;12.358;2022-11-20T06:11:35;99910.34;;;-2.35;96.30
15382;BME280;7789;51.364;12.358;2022-11-20T06:17:01;99903.56;;;-2.36;96.39
15382;BME280;7789;51.364;12.358;2022-11-20T06:22:29;99909.59;;;-2.37;96.90
15382;BME280;7789;51.364;12.358;2022-11-20T06:27:59;99902.81;;;-2.38;96.61
15382;BME280;7789;51.364;12.358;2022-11-20T06:33:26;99905.31;;;-2.36;96.80
15382;BME280;7789;51.364;12.358;2022-11-20T06:38:57;99912.16;;;-2.37;96.55
15382;BME280;7789;51.364;12.358;2022-11-20T06:44:25;99906.22;;;-2.37;96.94
15382;BME280;7789;51.364;12.358;2022-11-20T06:55:51;99904.41;;;-2.35;96.83
15382;BME280;7789;51.364;12.358;2022-11-20T07:01:18;99900.19;;;-2.36;96.48
15382;BME280;7789;51.364;12.358;2022-11-20T07:07:05;99901.00;;;-2.36;96.12
15382;BME280;7789;51.364;12.358;2022-11-20T07:12:37;99889.06;;;-2.35;96.25
15382;BME280;7789;51.364;12.358;2022-11-20T07:18:06;99903.53;;;-2.34;96.66
15382;BME280;7789;51.364;12.358;2022-11-20T07:23:43;99901.59;;;-2.28;96.27
15382;BME280;7789;51.364;12.358;2022-11-20T07:29:13;99905.56;;;-2.21;96.33
15382;BME280;7789;51.364;12.358;2022-11-20T07:34:56;99901.88;;;-2.14;96.47
15382;BME280;7789;51.364;12.358;2022-11-20T07:40:43;99905.78;;;-2.05;96.36
15382;BME280;7789;51.364;12.358;2022-11-20T07:46:17;99904.59;;;-1.97;96.32
15382;BME280;7789;51.364;12.358;2022-11-20T07:51:55;99898.38;;;-1.90;96.15
15382;BME280;7789;51.364;12.358;2022-11-20T07:57:39;99902.03;;;-1.76;96.26
15382;BME280;7789;51.364;12.358;2022-11-20T08:03:24;99882.00;;;-1.66;95.74
15382;BME280;7789;51.364;12.358;2022-11-20T08:08:51;99884.81;;;-1.51;95.36
15382;BME280;7789;51.364;12.358;2022-11-20T08:14:45;99879.22;;;-1.40;94.50
15382;BME280;7789;51.364;12.358;2022-11-20T08:20:33;99886.00;;;-1.19;93.66
15382;BME280;7789;51.364;12.358;2022-11-20T08:26:00;99880.16;;;-1.03;94.20
15382;BME280;7789;51.364;12.358;2022-11-20T08:44:36;99871.97;;;-0.35;92.75
15382;BME280;7789;51.364;12.358;2022-11-20T08:50:40;99874.47;;;-0.15;92.74
15382;BME280;7789;51.364;12.358;2022-11-20T08:56:06;99876.09;;;0.04;92.19
15382;BME280;7789;51.364;12.358;2022-11-20T09:01:52;99881.19;;;0.22;90.98
15382;BME280;7789;51.364;12.358;2022-11-20T09:07:17;99874.56;;;0.35;90.92
15382;BME280;7789;51.364;12.358;2022-11-20T09:12:53;99870.09;;;0.39;90.00
15382;BME280;7789;51.364;12.358;2022-11-20T09:18:19;99869.09;;;0.58;90.03
15382;BME280;7789;51.364;12.358;2022-11-20T09:23:42;99871.97;;;0.69;89.73
15382;BME280;7789;51.364;12.358;2022-11-20T09:29:25;99870.75;;;0.76;88.85
15382;BME280;7789;51.364;12.358;2022-11-20T09:35:14;99867.56;;;0.88;88.89
15382;BME280;7789;51.364;12.358;2022-11-20T09:41:05;99869.59;;;0.99;88.73
15382;BME280;7789;51.364;12.358;2022-11-20T09:46:53;99864.97;;;1.05;88.33
15382;BME280;7789;51.364;12.358;2022-11-20T09:52:31;99854.81;;;1.19;87.72
15382;BME280;7789;51.364;12.358;2022-11-20T09:57:58;99860.22;;;1.30;88.07
15382;BME280;7789;51.364;12.358;2022-11-20T10:03:34;99848.53;;;1.71;87.68
15382;BME280;7789;51.364;12.358;2022-11-20T10:16:09;99815.38;;;1.96;86.28
15382;BME280;7789;51.364;12.358;2022-11-20T10:21:46;99818.19;;;1.91;86.81
15382;BME280;7789;51.364;12.358;2022-11-20T10:33:46;99823.25;;;1.93;86.77
15382;BME280;7789;51.364;12.358;2022-11-20T10:39:39;99822.19;;;1.81;86.44
15382;BME280;7789;51.364;12.358;2022-11-20T10:51:56;99802.31;;;1.99;86.46
15382;BME280;7789;51.364;12.358;2022-11-20T10:57:52;99799.78;;;2.13;86.70
15382;BME280;7789;51.364;12.358;2022-11-20T11:03:39;99796.75;;;2.20;86.88
15382;BME280;7789;51.364;12.358;2022-11-20T11:09:56;99793.84;;;2.26;86.91
15382;BME280;7789;51.364;12.358;2022-11-20T11:15:28;99779.97;;;2.43;86.30
15382;BME280;7789;51.364;12.358;2022-11-20T11:20:56;99763.06;;;2.67;86.94
15382;BME280;7789;51.364;12.358;2022-11-20T11:26:26;99758.38;;;2.73;86.31
15382;BME280;7789;51.364;12.358;2022-11-20T11:32:03;99756.25;;;2.66;85.67
15382;BME280;7789;51.364;12.358;2022-11-20T11:37:34;99753.94;;;2.61;85.26
15382;BME280;7789;51.364;12.358;2022-11-20T11:43:25;99750.31;;;2.64;85.09
15382;BME280;7789;51.364;12.358;2022-11-20T11:49:16;99751.34;;;2.61;83.97
15382;BME280;7789;51.364;12.358;2022-11-20T11:54:49;99750.31;;;2.64;84.20
15382;BME280;7789;51.364;12.358;2022-11-20T12:00:20;99755.47;;;2.64;83.91
15382;BME280;7789;51.364;12.358;2022-11-20T12:05:47;99749.69;;;2.60;83.39
15382;BME280;7789;51.364;12.358;2022-11-20T12:11:29;99739.84;;;2.67;83.09
15382;BME280;7789;51.364;12.358;2022-11-20T12:17:13;99727.41;;;2.73;83.22
15382;BME280;7789;51.364;12.358;2022-11-20T12:22:57;99722.78;;;2.78;83.18
15382;BME280;7789;51.364;12.358;2022-11-20T12:28:37;99725.25;;;2.80;82.73
15382;BME280;7789;51.364;12.358;2022-11-20T12:34:23;99719.00;;;2.84;82.76
15382;BME280;7789;51.364;12.358;2022-11-20T12:40:09;99715.13;;;2.77;83.07
15382;BME280;7789;51.364;12.358;2022-11-20T12:46:04;99707.38;;;2.77;82.75
15382;BME280;7789;51.364;12.358;2022-11-20T12:52:09;99709.22;;;2.75;82.73
15382;BME280;7789;51.364;12.358;2022-11-20T12:57:50;99702.50;;;2.72;82.52
15382;BME280;7789;51.364;12.358;2022-11-20T13:03:42;99702.22;;;2.77;82.15
15382;BME280;7789;51.364;12.358;2022-11-20T13:09:19;99706.38;;;2.79;81.54
15382;BME280;7789;51.364;12.358;2022-11-20T13:20:59;99712.00;;;2.72;81.42
15382;BME280;7789;51.364;12.358;2022-11-20T13:26:24;99706.31;;;2.67;81.05
15382;BME280;7789;51.364;12.358;2022-11-20T13:32:13;99697.66;;;2.68;81.17
15382;BME280;7789;51.364;12.358;2022-11-20T13:37:38;99676.34;;;2.64;80.45
15382;BME280;7789;51.364;12.358;2022-11-20T13:43:26;99669.09;;;2.57;80.06
15382;BME280;7789;51.364;12.358;2022-11-20T13:49:00;99682.81;;;2.57;80.83
15382;BME280;7789;51.364;12.358;2022-11-20T13:55:02;99686.47;;;2.53;80.16
15382;BME280;7789;51.364;12.358;2022-11-20T14:00:50;99673.50;;;2.55;80.11
15382;BME280;7789;51.364;12.358;2022-11-20T14:06:31;99666.78;;;2.52;79.54
15382;BME280;7789;51.364;12.358;2022-11-20T14:11:57;99667.88;;;2.48;79.60
15382;BME280;7789;51.364;12.358;2022-11-20T14:17:33;99660.88;;;2.50;79.30
15382;BME280;7789;51.364;12.358;2022-11-20T14:23:07;99671.38;;;2.47;79.86
15382;BME280;7789;51.364;12.358;2022-11-20T14:28:53;99674.25;;;2.43;80.89
15382;BME280;7789;51.364;12.358;2022-11-20T14:40:32;99679.03;;;2.35;82.86
15382;BME280;7789;51.364;12.358;2022-11-20T14:46:08;99684.47;;;2.30;83.73
15382;BME280;7789;51.364;12.358;2022-11-20T14:51:43;99682.06;;;2.27;84.46
15382;BME280;7789;51.364;12.358;2022-11-20T14:57:32;99674.41;;;2.26;85.00
15382;BME280;7789;51.364;12.358;2022-11-20T15:03:02;99669.63;;;2.20;85.11
15382;BME280;7789;51.364;12.358;2022-11-20T15:08:57;99677.88;;;2.11;85.52
15382;BME280;7789;51.364;12.358;2022-11-20T15:14:52;99688.56;;;2.05;85.78
15382;BME280;7789;51.364;12.358;2022-11-20T15:20:43;99697.00;;;1.93;86.08
15382;BME280;7789;51.364;12.358;2022-11-20T15:26:22;99686.31;;;1.85;86.84
15382;BME280;7789;51.364;12.358;2022-11-20T15:31:53;99692.09;;;1.75;86.96
15382;BME280;7789;51.364;12.358;2022-11-20T15:37:51;99683.88;;;1.68;87.74
15382;BME280;7789;51.364;12.358;2022-11-20T15:43:27;99687.81;;;1.60;87.80
15382;BME280;7789;51.364;12.358;2022-11-20T15:49:09;99685.59;;;1.54;88.34
15382;BME280;7789;51.364;12.358;2022-11-20T15:54:58;99684.34;;;1.45;89.06
15382;BME280;7789;51.364;12.358;2022-11-20T16:00:43;99682.94;;;1.40;89.15
15382;BME280;7789;51.364;12.358;2022-11-20T16:06:27;99678.97;;;1.34;88.97
15382;BME280;7789;51.364;12.358;2022-11-20T16:11:52;99682.78;;;1.27;88.61
15382;BME280;7789;51.364;12.358;2022-11-20T16:17:30;99674.66;;;1.19;89.13
15382;BME280;7789;51.364;12.358;2022-11-20T16:23:13;99686.97;;;1.14;88.84
15382;BME280;7789;51.364;12.358;2022-11-20T16:28:45;99682.97;;;1.09;89.49
15382;BME280;7789;51.364;12.358;2022-11-20T16:34:08;99673.84;;;1.03;89.59
15382;BME280;7789;51.364;12.358;2022-11-20T16:39:41;99667.22;;;0.99;89.62
15382;BME280;7789;51.364;12.358;2022-11-20T16:45:23;99662.25;;;0.96;90.35
15382;BME280;7789;51.364;12.358;2022-11-20T16:50:56;99662.56;;;0.90;90.52
15382;BME280;7789;51.364;12.358;2022-11-20T16:56:29;99658.44;;;0.88;90.53
15382;BME280;7789;51.364;12.358;2022-11-20T17:02:03;99660.31;;;0.84;90.97
15382;BME280;7789;51.364;12.358;2022-11-20T17:07:51;99647.63;;;0.81;91.57
15382;BME280;7789;51.364;12.358;2022-11-20T17:13:54;99656.44;;;0.77;91.64
15382;BME280;7789;51.364;12.358;2022-11-20T17:19:26;99647.94;;;0.75;92.49
15382;BME280;7789;51.364;12.358;2022-11-20T17:24:58;99634.44;;;0.72;92.84
15382;BME280;7789;51.364;12.358;2022-11-20T17:36:44;99642.47;;;0.66;93.36
15382;BME280;7789;51.364;12.358;2022-11-20T17:42:14;99621.09;;;0.65;94.42
15382;BME280;7789;51.364;12.358;2022-11-20T17:48:07;99635.16;;;0.58;94.03
15382;BME280;7789;51.364;12.358;2022-11-20T17:53:57;99631.94;;;0.55;94.11
15382;BME280;7789;51.364;12.358;2022-11-20T17:59:23;99628.03;;;0.48;94.69
15382;BME280;7789;51.364;12.358;2022-11-20T18:05:05;99624.81;;;0.44;94.51
15382;BME280;7789;51.364;12.358;2022-11-20T18:10:42;99626.59;;;0.42;94.92
15382;BME280;7789;51.364;12.358;2022-11-20T18:16:11;99615.59;;;0.40;96.15
15382;BME280;7789;51.364;12.358;2022-11-20T18:21:41;99599.25;;;0.41;96.09
15382;BME280;7789;51.364;12.358;2022-11-20T18:27:19;99593.06;;;0.45;96.45
15382;BME280;7789;51.364;12.358;2022-11-20T18:32:53;99602.50;;;0.45;95.58
15382;BME280;7789;51.364;12.358;2022-11-20T18:38:20;99583.69;;;0.44;96.18
15382;BME280;7789;51.364;12.358;2022-11-20T18:43:55;99583.41;;;0.49;96.26
15382;BME280;7789;51.364;12.358;2022-11-20T18:49:35;99572.22;;;0.50;96.80
15382;BME280;7789;51.364;12.358;2022-11-20T18:55:01;99577.97;;;0.55;97.16
15382;BME280;7789;51.364;12.358;2022-11-20T19:00:41;99569.84;;;0.62;96.83
15382;BME280;7789;51.364;12.358;2022-11-20T19:06:12;99565.28;;;0.67;96.74
15382;BME280;7789;51.364;12.358;2022-11-20T19:11:44;99543.53;;;0.73;96.40
15382;BME280;7789;51.364;12.358;2022-11-20T19:17:12;99533.16;;;0.74;96.60
15382;BME280;7789;51.364;12.358;2022-11-20T19:22:38;99533.31;;;0.87;97.05
15382;BME280;7789;51.364;12.358;2022-11-20T19:28:19;99518.69;;;0.87;97.07
15382;BME280;7789;51.364;12.358;2022-11-20T19:40:07;99504.34;;;1.13;96.96
15382;BME280;7789;51.364;12.358;2022-11-20T19:45:39;99491.53;;;1.27;96.38
15382;BME280;7789;51.364;12.358;2022-11-20T19:51:23;99475.53;;;1.36;96.36
15382;BME280;7789;51.364;12.358;2022-11-20T19:57:06;99470.69;;;1.45;96.34
15382;BME280;7789;51.364;12.358;2022-11-20T20:02:32;99459.03;;;1.54;95.97
15382;BME280;7789;51.364;12.358;2022-11-20T20:08:01;99453.75;;;1.55;96.12
15382;BME280;7789;51.364;12.358;2022-11-20T20:13:25;99462.22;;;1.57;95.62
15382;BME280;7789;51.364;12.358;2022-11-20T20:18:53;99448.59;;;1.55;95.87
15382;BME280;7789;51.364;12.358;2022-11-20T20:24:34;99444.56;;;1.65;95.97
15382;BME280;7789;51.364;12.358;2022-11-20T20:30:12;99444.72;;;1.76;95.56
15382;BME280;7789;51.364;12.358;2022-11-20T20:35:42;99442.59;;;1.82;95.70
15382;BME280;7789;51.364;12.358;2022-11-20T20:41:17;99430.09;;;1.90;95.09
15382;BME280;7789;51.364;12.358;2022-11-20T20:46:50;99439.81;;;1.99;94.69
15382;BME280;7789;51.364;12.358;2022-11-20T20:52:29;99422.50;;;2.01;94.50
15382;BME280;7789;51.364;12.358;2022-11-20T20:58:02;99420.50;;;2.06;94.61
15382;BME280;7789;51.364;12.358;2022-11-20T21:03:32;99419.38;;;2.10;94.16
15382;BME280;7789;51.364;12.358;2022-11-20T21:08:57;99416.41;;;2.16;94.22
15382;BME280;7789;51.364;12.358;2022-11-20T21:14:31;99415.72;;;2.27;93.93
15382;BME280;7789;51.364;12.358;2022-11-20T21:20:15;99411.47;;;2.26;94.02
15382;BME280;7789;51.364;12.358;2022-11-20T21:25:58;99394.16;;;2.28;94.06
15382;BME280;7789;51.364;12.358;2022-11-20T21:31:39;99373.97;;;2.34;94.14
15382;BME280;7789;51.364;12.358;2022-11-20T21:37:07;99360.38;;;2.32;94.58
15382;BME280;7789;51.364;12.358;2022-11-20T21:42:35;99370.25;;;2.26;94.32
15382;BME280;7789;51.364;12.358;2022-11-20T21:48:05;99356.44;;;2.27;94.86
15382;BME280;7789;51.364;12.358;2022-11-20T21:53:40;99360.25;;;2.21;94.98
15382;BME280;7789;51.364;12.358;2022-11-20T21:59:05;99348.91;;;2.24;95.53
15382;BME280;7789;51.364;12.358;2022-11-20T22:04:50;99336.94;;;2.23;95.35
15382;BME280;7789;51.364;12.358;2022-11-20T22:10:27;99336.00;;;2.24;95.80
15382;BME280;7789;51.364;12.358;2022-11-20T22:16:01;99312.53;;;2.28;96.08
15382;BME280;7789;51.364;12.358;2022-11-20T22:21:34;99305.59;;;2.29;96.54
15382;BME280;7789;51.364;12.358;2022-11-20T22:27:04;99293.53;;;2.29;96.25
15382;BME280;7789;51.364;12.358;2022-11-20T22:32:27;99278.88;;;2.17;96.67
15382;BME280;7789;51.364;12.358;2022-11-20T22:38:08;99263.75;;;2.13;97.00
15382;BME280;7789;51.364;12.358;2022-11-20T22:43:55;99257.66;;;2.14;96.85
15382;BME280;7789;51.364;12.358;2022-11-20T22:49:28;99248.56;;;2.08;97.19
15382;BME280;7789;51.364;12.358;2022-11-20T22:55:06;99226.41;;;2.06;97.47
15382;BME280;7789;51.364;12.358;2022-11-20T23:00:39;99212.06;;;2.14;97.77
15382;BME280;7789;51.364;12.358;2022-11-20T23:06:22;99202.28;;;2.19;97.71
15382;BME280;7789;51.364;12.358;2022-11-20T23:11:54;99193.63;;;2.20;97.81
15382;BME280;7789;51.364;12.358;2022-11-20T23:17:51;99180.72;;;2.20;97.71
15382;BME280;7789;51.364;12.358;2022-11-20T23:23:18;99180.72;;;2.20;97.99
15382;BME280;7789;51.364;12.358;2022-11-20T23:29:01;99161.97;;;2.18;98.71
15382;BME280;7789;51.364;12.358;2022-11-20T23:34:37;99151.28;;;2.24;98.90
15382;BME280;7789;51.364;12.358;2022-11-20T23:40:07;99140.44;;;2.19;99.24
15382;BME280;7789;51.364;12.358;2022-11-20T23:45:39;99133.09;;;2.26;99.86
15382;BME280;7789;51.364;12.358;2022-11-20T23:51:08;99122.22;;;2.22;100.00
15382;BME280;7789;51.364;12.358;2022-11-20T23:56:50;99106.22;;;2.30;100.00
